sensor_id;sensor_type;location;lat;lon;timestamp;pressure;altitude;pressure_sealevel;temperature;humidity
15932;BME280;8065;49.520;11.284;2023-05-17T00:01:32;97755.53;;;12.46;61.73
15932;BME280;8065;49.520;11.284;2023-05-17T00:03:59;97756.31;;;12.47;61.81
15932;BME280;8065;49.520;11.284;2023-05-17T00:06:26;97760.22;;;12.50;62.20
15932;BME280;8065;49.520;11.284;2023-05-17T00:08:53;97761.91;;;12.54;61.04
15932;BME280;8065;49.520;11.284;2023-05-17T00:11:20;97764.53;;;12.63;61.24
15932;BME280;8065;49.520;11.284;2023-05-17T00:13:46;97766.88;;;12.64;60.45
15932;BME280;8065;49.520;11.284;2023-05-17T00:16:13;97773.63;;;12.62;60.13
15932;BME280;8065;49.520;11.284;2023-05-17T00:18:39;97762.56;;;12.51;60.91
15932;BME280;8065;49.520;11.284;2023-05-17T00:21:06;97770.09;;;12.49;60.75
15932;BME280;8065;49.520;11.284;2023-05-17T00:23:34;97769.16;;;12.45;61.55
15932;BME280;8065;49.520;11.284;2023-05-17T00:26:00;97769.25;;;12.28;63.25
15932;BME280;8065;49.520;11.284;2023-05-17T00:28:27;97760.16;;;12.29;62.84
15932;BME280;8065;49.520;11.284;2023-05-17T00:30:53;97765.50;;;12.29;62.52
15932;BME280;8065;49.520;11.284;2023-05-17T00:33:20;97762.81;;;12.29;61.69
15932;BME280;8065;49.520;11.284;2023-05-17T00:35:46;97764.56;;;12.25;61.33
15932;BME280;8065;49.520;11.284;2023-05-17T00:38:13;97770.06;;;12.20;61.35
15932;BME280;8065;49.520;11.284;2023-05-17T00:40:41;97771.25;;;12.10;62.44
15932;BME280;8065;49.520;11.284;2023-05-17T00:43:08;97777.88;;;11.95;63.31
15932;BME280;8065;49.520;11.284;2023-05-17T00:45:34;97785.00;;;11.57;65.20
15932;BME280;8065;49.520;11.284;2023-05-17T00:48:01;97785.31;;;11.46;66.48
15932;BME280;8065;49.520;11.284;2023-05-17T00:50:27;97782.72;;;10.95;68.64
15932;BME280;8065;49.520;11.284;2023-05-17T00:52:54;97782.22;;;10.84;69.41
15932;BME280;8065;49.520;11.284;2023-05-17T00:55:21;97787.88;;;11.00;69.33
15932;BME280;8065;49.520;11.284;2023-05-17T00:57:49;97794.25;;;10.81;69.97
15932;BME280;8065;49.520;11.284;2023-05-17T01:00:15;97793.78;;;10.79;69.75
15932;BME280;8065;49.520;11.284;2023-05-17T01:02:42;97788.47;;;10.88;69.27
15932;BME280;8065;49.520;11.284;2023-05-17T01:05:11;97787.88;;;10.91;69.36
15932;BME280;8065;49.520;11.284;2023-05-17T01:07:38;97793.19;;;11.00;69.49
15932;BME280;8065;49.520;11.284;2023-05-17T01:10:06;97794.13;;;11.04;69.48
15932;BME280;8065;49.520;11.284;2023-05-17T01:12:39;97791.78;;;10.94;69.19
15932;BME280;8065;49.520;11.284;2023-05-17T01:15:14;97784.25;;;10.78;70.12
15932;BME280;8065;49.520;11.284;2023-05-17T01:17:49;97788.16;;;10.81;69.70
15932;BME280;8065;49.520;11.284;2023-05-17T01:20:19;97791.13;;;10.79;69.89
15932;BME280;8065;49.520;11.284;2023-05-17T01:23:06;97799.53;;;10.64;70.14
15932;BME280;8065;49.520;11.284;2023-05-17T01:25:41;97800.78;;;10.58;69.78
15932;BME280;8065;49.520;11.284;2023-05-17T01:28:17;97795.63;;;10.53;70.50
15932;BME280;8065;49.520;11.284;2023-05-17T01:30:46;97804.34;;;10.45;71.00
15932;BME280;8065;49.520;11.284;2023-05-17T01:33:14;97803.09;;;10.51;70.87
15932;BME280;8065;49.520;11.284;2023-05-17T01:35:41;97806.72;;;10.55;70.29
15932;BME280;8065;49.520;11.284;2023-05-17T01:38:08;97802.69;;;10.66;70.44
15932;BME280;8065;49.520;11.284;2023-05-17T01:40:37;97806.88;;;10.59;70.63
15932;BME280;8065;49.520;11.284;2023-05-17T01:43:11;97806.72;;;10.55;70.02
15932;BME280;8065;49.520;11.284;2023-05-17T01:45:46;97810.50;;;10.71;69.31
15932;BME280;8065;49.520;11.284;2023-05-17T01:48:20;97808.13;;;10.61;69.48
15932;BME280;8065;49.520;11.284;2023-05-17T01:50:50;97813.88;;;10.46;70.01
15932;BME280;8065;49.520;11.284;2023-05-17T01:53:20;97824.22;;;10.16;71.15
15932;BME280;8065;49.520;11.284;2023-05-17T01:55:53;97826.34;;;10.28;70.90
15932;BME280;8065;49.520;11.284;2023-05-17T01:58:24;97823.75;;;10.14;71.31
15932;BME280;8065;49.520;11.284;2023-05-17T02:00:55;97830.03;;;9.88;71.73
15932;BME280;8065;49.520;11.284;2023-05-17T02:03:22;97829.22;;;9.87;72.40
15932;BME280;8065;49.520;11.284;2023-05-17T02:05:48;97835.50;;;9.91;72.11
15932;BME280;8065;49.520;11.284;2023-05-17T02:08:15;97828.38;;;10.00;71.09
15932;BME280;8065;49.520;11.284;2023-05-17T02:10:41;97835.59;;;10.08;71.48
15932;BME280;8065;49.520;11.284;2023-05-17T02:13:08;97841.50;;;10.05;70.91
15932;BME280;8065;49.520;11.284;2023-05-17T02:15:34;97839.00;;;10.00;71.34
15932;BME280;8065;49.520;11.284;2023-05-17T02:18:02;97851.53;;;10.08;70.81
15932;BME280;8065;49.520;11.284;2023-05-17T02:20:29;97846.28;;;9.95;71.55
15932;BME280;8065;49.520;11.284;2023-05-17T02:22:56;97844.72;;;9.94;71.41
15932;BME280;8065;49.520;11.284;2023-05-17T02:25:22;97843.59;;;9.86;71.66
15932;BME280;8065;49.520;11.284;2023-05-17T02:27:49;97834.53;;;9.87;72.18
15932;BME280;8065;49.520;11.284;2023-05-17T02:30:15;97839.50;;;10.11;70.45
15932;BME280;8065;49.520;11.284;2023-05-17T02:32:42;97841.41;;;9.88;71.47
15932;BME280;8065;49.520;11.284;2023-05-17T02:35:10;97843.88;;;10.07;70.68
15932;BME280;8065;49.520;11.284;2023-05-17T02:37:37;97840.19;;;9.94;70.78
15932;BME280;8065;49.520;11.284;2023-05-17T02:40:05;97845.50;;;9.94;71.58
15932;BME280;8065;49.520;11.284;2023-05-17T02:42:33;97844.91;;;9.97;71.31
15932;BME280;8065;49.520;11.284;2023-05-17T02:45:00;97843.22;;;10.01;70.76
15932;BME280;8065;49.520;11.284;2023-05-17T02:47:27;97853.34;;;9.99;70.68
15932;BME280;8065;49.520;11.284;2023-05-17T02:49:53;97848.66;;;9.96;71.88
15932;BME280;8065;49.520;11.284;2023-05-17T02:52:21;97847.69;;;9.92;71.30
15932;BME280;8065;49.520;11.284;2023-05-17T02:54:48;97841.59;;;9.92;72.33
15932;BME280;8065;49.520;11.284;2023-05-17T02:57:15;97857.44;;;10.05;71.11
15932;BME280;8065;49.520;11.284;2023-05-17T02:59:42;97856.13;;;9.94;71.06
15932;BME280;8065;49.520;11.284;2023-05-17T03:02:08;97854.41;;;9.67;71.60
15932;BME280;8065;49.520;11.284;2023-05-17T03:04:35;97857.22;;;9.71;71.38
15932;BME280;8065;49.520;11.284;2023-05-17T03:07:02;97857.28;;;9.57;72.05
15932;BME280;8065;49.520;11.284;2023-05-17T03:09:30;97855.81;;;9.42;72.50
15932;BME280;8065;49.520;11.284;2023-05-17T03:11:56;97851.69;;;9.36;74.07
15932;BME280;8065;49.520;11.284;2023-05-17T03:14:23;97862.91;;;9.33;73.79
15932;BME280;8065;49.520;11.284;2023-05-17T03:16:49;97860.63;;;9.40;74.22
15932;BME280;8065;49.520;11.284;2023-05-17T03:19:16;97863.88;;;9.37;73.83
15932;BME280;8065;49.520;11.284;2023-05-17T03:21:43;97863.81;;;9.29;73.86
15932;BME280;8065;49.520;11.284;2023-05-17T03:24:09;97869.03;;;9.20;73.80
15932;BME280;8065;49.520;11.284;2023-05-17T03:26:37;97874.91;;;9.31;73.76
15932;BME280;8065;49.520;11.284;2023-05-17T03:29:03;97874.13;;;9.16;73.51
15932;BME280;8065;49.520;11.284;2023-05-17T03:31:30;97875.91;;;9.21;73.76
15932;BME280;8065;49.520;11.284;2023-05-17T03:33:56;97880.59;;;9.24;74.10
15932;BME280;8065;49.520;11.284;2023-05-17T03:36:23;97878.06;;;9.19;73.87
15932;BME280;8065;49.520;11.284;2023-05-17T03:38:49;97883.19;;;9.15;75.29
15932;BME280;8065;49.520;11.284;2023-05-17T03:41:16;97883.59;;;9.09;74.93
15932;BME280;8065;49.520;11.284;2023-05-17T03:43:44;97891.03;;;9.07;74.18
15932;BME280;8065;49.520;11.284;2023-05-17T03:46:10;97889.78;;;8.91;75.32
15932;BME280;8065;49.520;11.284;2023-05-17T03:48:36;97898.44;;;8.82;75.54
15932;BME280;8065;49.520;11.284;2023-05-17T03:51:03;97894.69;;;8.83;75.04
15932;BME280;8065;49.520;11.284;2023-05-17T03:53:30;97899.13;;;8.88;74.85
15932;BME280;8065;49.520;11.284;2023-05-17T03:55:56;97899.50;;;8.81;75.13
15932;BME280;8065;49.520;11.284;2023-05-17T03:58:22;97902.66;;;8.97;75.92
15932;BME280;8065;49.520;11.284;2023-05-17T04:00:50;97900.66;;;9.03;74.70
15932;BME280;8065;49.520;11.284;2023-05-17T04:03:17;97904.19;;;9.12;74.95
15932;BME280;8065;49.520;11.284;2023-05-17T04:05:43;97904.91;;;9.04;75.28
15932;BME280;8065;49.520;11.284;2023-05-17T04:08:10;97915.69;;;8.94;76.55
15932;BME280;8065;49.520;11.284;2023-05-17T04:10:37;97914.91;;;9.07;76.06
15932;BME280;8065;49.520;11.284;2023-05-17T04:13:06;97914.59;;;9.08;76.08
15932;BME280;8065;49.520;11.284;2023-05-17T04:15:32;97914.56;;;9.36;75.22
15932;BME280;8065;49.520;11.284;2023-05-17T04:18:00;97924.28;;;9.40;74.70
15932;BME280;8065;49.520;11.284;2023-05-17T04:20:27;97925.31;;;9.53;74.32
15932;BME280;8065;49.520;11.284;2023-05-17T04:22:53;97933.22;;;9.67;74.26
15932;BME280;8065;49.520;11.284;2023-05-17T04:25:20;97931.34;;;9.67;73.76
15932;BME280;8065;49.520;11.284;2023-05-17T04:27:48;97927.19;;;9.97;73.00
15932;BME280;8065;49.520;11.284;2023-05-17T04:30:15;97930.34;;;9.99;73.33
15932;BME280;8065;49.520;11.284;2023-05-17T04:32:41;97932.38;;;10.02;73.82
15932;BME280;8065;49.520;11.284;2023-05-17T04:35:09;97936.13;;;10.01;73.65
15932;BME280;8065;49.520;11.284;2023-05-17T04:37:36;97934.50;;;10.14;73.69
15932;BME280;8065;49.520;11.284;2023-05-17T04:40:05;97923.88;;;10.36;72.99
15932;BME280;8065;49.520;11.284;2023-05-17T04:42:32;97931.38;;;10.43;72.39
15932;BME280;8065;49.520;11.284;2023-05-17T04:44:59;97939.09;;;10.53;72.86
15932;BME280;8065;49.520;11.284;2023-05-17T04:47:26;97937.59;;;10.69;72.22
15932;BME280;8065;49.520;11.284;2023-05-17T04:49:53;97936.09;;;10.86;71.05
15932;BME280;8065;49.520;11.284;2023-05-17T04:52:21;97938.66;;;10.99;70.21
15932;BME280;8065;49.520;11.284;2023-05-17T04:54:48;97956.84;;;11.14;69.98
15932;BME280;8065;49.520;11.284;2023-05-17T04:57:15;97951.53;;;11.14;71.31
15932;BME280;8065;49.520;11.284;2023-05-17T04:59:41;97944.50;;;11.44;69.53
15932;BME280;8065;49.520;11.284;2023-05-17T05:02:08;97950.94;;;11.52;69.48
15932;BME280;8065;49.520;11.284;2023-05-17T05:04:34;97947.53;;;11.86;69.26
15932;BME280;8065;49.520;11.284;2023-05-17T05:07:01;97953.16;;;11.67;69.54
15932;BME280;8065;49.520;11.284;2023-05-17T05:09:28;97952.41;;;11.84;69.46
15932;BME280;8065;49.520;11.284;2023-05-17T05:11:55;97953.81;;;11.90;69.31
15932;BME280;8065;49.520;11.284;2023-05-17T05:14:21;97951.75;;;12.04;69.08
15932;BME280;8065;49.520;11.284;2023-05-17T05:16:48;97964.28;;;12.12;68.80
15932;BME280;8065;49.520;11.284;2023-05-17T05:19:14;97964.56;;;12.20;68.66
15932;BME280;8065;49.520;11.284;2023-05-17T05:21:43;97970.34;;;12.39;68.07
15932;BME280;8065;49.520;11.284;2023-05-17T05:24:10;97975.03;;;12.33;68.28
15932;BME280;8065;49.520;11.284;2023-05-17T05:26:37;97973.00;;;12.94;66.61
15932;BME280;8065;49.520;11.284;2023-05-17T05:29:04;97973.72;;;12.65;67.47
15932;BME280;8065;49.520;11.284;2023-05-17T05:31:30;97979.66;;;12.71;68.26
15932;BME280;8065;49.520;11.284;2023-05-17T05:33:57;97985.16;;;12.74;68.13
15932;BME280;8065;49.520;11.284;2023-05-17T05:36:23;97985.59;;;12.76;67.48
15932;BME280;8065;49.520;11.284;2023-05-17T05:38:50;97981.19;;;12.80;67.85
15932;BME280;8065;49.520;11.284;2023-05-17T05:41:18;97986.00;;;12.96;67.62
15932;BME280;8065;49.520;11.284;2023-05-17T05:43:46;97994.09;;;13.08;67.05
15932;BME280;8065;49.520;11.284;2023-05-17T05:46:12;97992.81;;;13.14;66.34
15932;BME280;8065;49.520;11.284;2023-05-17T05:48:39;97998.47;;;13.21;66.94
15932;BME280;8065;49.520;11.284;2023-05-17T05:51:06;97996.53;;;13.30;66.59
15932;BME280;8065;49.520;11.284;2023-05-17T05:53:32;97997.59;;;13.38;66.05
15932;BME280;8065;49.520;11.284;2023-05-17T05:55:59;98001.03;;;13.38;65.82
15932;BME280;8065;49.520;11.284;2023-05-17T05:58:25;98007.84;;;13.27;66.05
15932;BME280;8065;49.520;11.284;2023-05-17T06:00:53;98005.00;;;13.32;65.99
15932;BME280;8065;49.520;11.284;2023-05-17T06:03:19;98001.97;;;13.42;66.50
15932;BME280;8065;49.520;11.284;2023-05-17T06:05:46;98005.53;;;13.47;65.72
15932;BME280;8065;49.520;11.284;2023-05-17T06:08:12;98002.31;;;13.62;65.54
15932;BME280;8065;49.520;11.284;2023-05-17T06:10:39;98007.66;;;13.62;65.50
15932;BME280;8065;49.520;11.284;2023-05-17T06:13:05;98016.03;;;13.52;64.78
15932;BME280;8065;49.520;11.284;2023-05-17T06:15:32;98016.59;;;13.66;63.84
15932;BME280;8065;49.520;11.284;2023-05-17T06:18:00;98022.84;;;13.91;63.21
15932;BME280;8065;49.520;11.284;2023-05-17T06:20:26;98025.28;;;13.84;64.30
15932;BME280;8065;49.520;11.284;2023-05-17T06:22:53;98012.94;;;13.91;63.35
15932;BME280;8065;49.520;11.284;2023-05-17T06:25:19;98018.22;;;14.00;63.61
15932;BME280;8065;49.520;11.284;2023-05-17T06:27:46;98026.16;;;14.08;63.09
15932;BME280;8065;49.520;11.284;2023-05-17T06:30:12;98025.50;;;14.11;63.35
15932;BME280;8065;49.520;11.284;2023-05-17T06:32:39;98032.75;;;14.11;62.65
15932;BME280;8065;49.520;11.284;2023-05-17T06:35:08;98031.09;;;14.19;62.02
15932;BME280;8065;49.520;11.284;2023-05-17T06:37:35;98028.09;;;14.20;62.90
15932;BME280;8065;49.520;11.284;2023-05-17T06:40:02;98027.59;;;14.27;62.05
15932;BME280;8065;49.520;11.284;2023-05-17T06:42:30;98032.84;;;14.35;61.21
15932;BME280;8065;49.520;11.284;2023-05-17T06:44:56;98032.81;;;14.44;61.18
15932;BME280;8065;49.520;11.284;2023-05-17T06:47:23;98027.06;;;14.54;61.43
15932;BME280;8065;49.520;11.284;2023-05-17T06:49:49;98030.19;;;14.56;61.62
15932;BME280;8065;49.520;11.284;2023-05-17T06:52:17;98024.94;;;14.60;61.86
15932;BME280;8065;49.520;11.284;2023-05-17T06:54:43;98034.44;;;14.69;61.19
15932;BME280;8065;49.520;11.284;2023-05-17T06:57:10;98035.13;;;14.66;62.27
15932;BME280;8065;49.520;11.284;2023-05-17T06:59:36;98032.78;;;14.65;61.84
15932;BME280;8065;49.520;11.284;2023-05-17T07:02:03;98042.50;;;14.28;62.22
15932;BME280;8065;49.520;11.284;2023-05-17T07:04:29;98045.06;;;14.45;62.22
15932;BME280;8065;49.520;11.284;2023-05-17T07:06:56;98039.31;;;14.55;61.86
15932;BME280;8065;49.520;11.284;2023-05-17T07:09:24;98038.66;;;14.58;61.33
15932;BME280;8065;49.520;11.284;2023-05-17T07:11:51;98037.56;;;14.71;61.04
15932;BME280;8065;49.520;11.284;2023-05-17T07:14:17;98040.00;;;14.76;60.82
15932;BME280;8065;49.520;11.284;2023-05-17T07:16:43;98039.81;;;14.82;60.67
15932;BME280;8065;49.520;11.284;2023-05-17T07:19:10;98039.09;;;14.60;61.33
15932;BME280;8065;49.520;11.284;2023-05-17T07:21:36;98039.59;;;14.21;61.74
15932;BME280;8065;49.520;11.284;2023-05-17T07:24:03;98041.09;;;14.51;61.28
15932;BME280;8065;49.520;11.284;2023-05-17T07:26:31;98042.75;;;14.35;62.29
15932;BME280;8065;49.520;11.284;2023-05-17T07:28:57;98040.69;;;14.73;61.79
15932;BME280;8065;49.520;11.284;2023-05-17T07:31:24;98039.16;;;14.97;60.97
15932;BME280;8065;49.520;11.284;2023-05-17T07:33:51;98044.22;;;15.11;60.71
15932;BME280;8065;49.520;11.284;2023-05-17T07:36:17;98042.53;;;15.18;59.99
15932;BME280;8065;49.520;11.284;2023-05-17T07:38:44;98052.56;;;14.97;60.04
15932;BME280;8065;49.520;11.284;2023-05-17T07:41:11;98044.25;;;14.77;60.64
15932;BME280;8065;49.520;11.284;2023-05-17T07:43:42;98044.50;;;14.72;60.31
15932;BME280;8065;49.520;11.284;2023-05-17T07:46:08;98041.66;;;14.57;60.68
15932;BME280;8065;49.520;11.284;2023-05-17T07:48:35;98049.16;;;14.63;60.80
15932;BME280;8065;49.520;11.284;2023-05-17T07:51:01;98055.00;;;14.90;60.92
15932;BME280;8065;49.520;11.284;2023-05-17T07:53:28;98048.31;;;14.96;61.13
15932;BME280;8065;49.520;11.284;2023-05-17T07:55:54;98053.34;;;15.09;59.91
15932;BME280;8065;49.520;11.284;2023-05-17T07:58:21;98052.16;;;15.31;59.45
15932;BME280;8065;49.520;11.284;2023-05-17T08:00:48;98060.84;;;15.28;59.18
15932;BME280;8065;49.520;11.284;2023-05-17T08:03:15;98059.06;;;15.20;58.49
15932;BME280;8065;49.520;11.284;2023-05-17T08:05:41;98053.28;;;15.30;58.71
15932;BME280;8065;49.520;11.284;2023-05-17T08:08:08;98046.56;;;15.36;57.97
15932;BME280;8065;49.520;11.284;2023-05-17T08:10:34;98051.06;;;14.87;57.59
15932;BME280;8065;49.520;11.284;2023-05-17T08:13:02;98056.84;;;15.34;58.20
15932;BME280;8065;49.520;11.284;2023-05-17T08:15:28;98047.47;;;15.40;58.17
15932;BME280;8065;49.520;11.284;2023-05-17T08:17:56;98053.28;;;15.30;57.45
15932;BME280;8065;49.520;11.284;2023-05-17T08:20:23;98055.84;;;15.51;57.88
15932;BME280;8065;49.520;11.284;2023-05-17T08:22:49;98050.25;;;15.56;57.42
15932;BME280;8065;49.520;11.284;2023-05-17T08:25:16;98049.16;;;15.45;58.33
15932;BME280;8065;49.520;11.284;2023-05-17T08:27:42;98043.53;;;15.87;57.88
15932;BME280;8065;49.520;11.284;2023-05-17T08:30:09;98044.25;;;16.12;57.03
15932;BME280;8065;49.520;11.284;2023-05-17T08:32:36;98052.75;;;16.14;55.49
15932;BME280;8065;49.520;11.284;2023-05-17T08:35:04;98052.31;;;15.99;55.84
15932;BME280;8065;49.520;11.284;2023-05-17T08:37:31;98055.66;;;16.09;55.07
15932;BME280;8065;49.520;11.284;2023-05-17T08:39:58;98057.16;;;16.34;54.38
15932;BME280;8065;49.520;11.284;2023-05-17T08:42:24;98059.09;;;16.21;54.86
15932;BME280;8065;49.520;11.284;2023-05-17T08:44:52;98068.00;;;15.73;55.48
15932;BME280;8065;49.520;11.284;2023-05-17T08:47:19;98062.84;;;15.92;55.54
15932;BME280;8065;49.520;11.284;2023-05-17T08:49:55;98063.13;;;16.15;55.41
15932;BME280;8065;49.520;11.284;2023-05-17T08:52:28;98069.50;;;16.11;55.13
15932;BME280;8065;49.520;11.284;2023-05-17T08:54:56;98067.28;;;16.13;54.81
15932;BME280;8065;49.520;11.284;2023-05-17T08:57:25;98067.00;;;16.30;55.51
15932;BME280;8065;49.520;11.284;2023-05-17T08:59:53;98071.59;;;16.29;55.32
15932;BME280;8065;49.520;11.284;2023-05-17T09:02:22;98068.00;;;15.85;53.89
15932;BME280;8065;49.520;11.284;2023-05-17T09:04:49;98062.28;;;16.39;53.84
15932;BME280;8065;49.520;11.284;2023-05-17T09:07:20;98072.94;;;16.51;54.86
15932;BME280;8065;49.520;11.284;2023-05-17T09:09:49;98068.59;;;16.19;54.82
15932;BME280;8065;49.520;11.284;2023-05-17T09:12:16;98066.56;;;16.28;54.52
15932;BME280;8065;49.520;11.284;2023-05-17T09:14:42;98075.94;;;16.34;54.16
15932;BME280;8065;49.520;11.284;2023-05-17T09:17:13;98069.00;;;16.33;53.82
15932;BME280;8065;49.520;11.284;2023-05-17T09:19:42;98078.19;;;16.20;54.19
15932;BME280;8065;49.520;11.284;2023-05-17T09:22:11;98079.28;;;16.31;54.29
15932;BME280;8065;49.520;11.284;2023-05-17T09:24:38;98083.66;;;16.23;54.46
15932;BME280;8065;49.520;11.284;2023-05-17T09:27:07;98092.09;;;15.97;54.38
15932;BME280;8065;49.520;11.284;2023-05-17T09:29:34;98088.75;;;15.88;54.58
15932;BME280;8065;49.520;11.284;2023-05-17T09:32:16;98096.34;;;15.86;55.51
15932;BME280;8065;49.520;11.284;2023-05-17T09:34:45;98092.09;;;15.85;55.56
15932;BME280;8065;49.520;11.284;2023-05-17T09:37:13;98095.66;;;16.01;55.75
15932;BME280;8065;49.520;11.284;2023-05-17T09:39:41;98092.06;;;16.22;55.73
15932;BME280;8065;49.520;11.284;2023-05-17T09:42:10;98102.78;;;16.22;55.03
15932;BME280;8065;49.520;11.284;2023-05-17T09:44:47;98104.13;;;16.16;54.85
15932;BME280;8065;49.520;11.284;2023-05-17T09:47:24;98102.50;;;16.39;54.86
15932;BME280;8065;49.520;11.284;2023-05-17T09:49:51;98107.81;;;16.51;54.90
15932;BME280;8065;49.520;11.284;2023-05-17T09:52:18;98112.03;;;16.36;55.30
15932;BME280;8065;49.520;11.284;2023-05-17T09:54:52;98119.94;;;16.45;54.63
15932;BME280;8065;49.520;11.284;2023-05-17T09:57:20;98125.09;;;16.38;55.21
15932;BME280;8065;49.520;11.284;2023-05-17T09:59:47;98117.31;;;16.49;54.84
15932;BME280;8065;49.520;11.284;2023-05-17T10:02:19;98117.50;;;16.40;55.55
15932;BME280;8065;49.520;11.284;2023-05-17T10:04:47;98122.78;;;16.52;55.49
15932;BME280;8065;49.520;11.284;2023-05-17T10:07:17;98119.03;;;16.41;55.57
15932;BME280;8065;49.520;11.284;2023-05-17T10:09:44;98125.53;;;16.40;55.43
15932;BME280;8065;49.520;11.284;2023-05-17T10:12:12;98119.75;;;16.54;55.32
15932;BME280;8065;49.520;11.284;2023-05-17T10:14:42;98123.75;;;16.44;56.30
15932;BME280;8065;49.520;11.284;2023-05-17T10:17:10;98114.97;;;16.19;56.81
15932;BME280;8065;49.520;11.284;2023-05-17T10:19:37;98115.63;;;16.56;56.21
15932;BME280;8065;49.520;11.284;2023-05-17T10:22:04;98104.97;;;16.72;55.45
15932;BME280;8065;49.520;11.284;2023-05-17T10:24:31;98113.38;;;16.70;54.84
15932;BME280;8065;49.520;11.284;2023-05-17T10:26:59;98113.38;;;16.70;54.75
15932;BME280;8065;49.520;11.284;2023-05-17T10:29:27;98123.22;;;16.54;55.50
15932;BME280;8065;49.520;11.284;2023-05-17T10:32:02;98116.06;;;16.30;55.15
15932;BME280;8065;49.520;11.284;2023-05-17T10:34:30;98124.84;;;16.43;55.42
15932;BME280;8065;49.520;11.284;2023-05-17T10:36:59;98117.31;;;16.49;55.82
15932;BME280;8065;49.520;11.284;2023-05-17T10:39:26;98116.47;;;16.45;55.40
15932;BME280;8065;49.520;11.284;2023-05-17T10:41:55;98116.53;;;16.08;56.12
15932;BME280;8065;49.520;11.284;2023-05-17T10:44:22;98119.00;;;16.01;56.38
15932;BME280;8065;49.520;11.284;2023-05-17T10:46:50;98120.38;;;15.83;56.63
15932;BME280;8065;49.520;11.284;2023-05-17T10:49:19;98118.91;;;15.85;56.14
15932;BME280;8065;49.520;11.284;2023-05-17T10:51:45;98116.22;;;15.85;57.18
15932;BME280;8065;49.520;11.284;2023-05-17T10:54:13;98111.19;;;15.96;57.66
15932;BME280;8065;49.520;11.284;2023-05-17T10:56:46;98112.28;;;16.19;57.95
15932;BME280;8065;49.520;11.284;2023-05-17T10:59:14;98107.03;;;16.11;57.68
15932;BME280;8065;49.520;11.284;2023-05-17T11:01:52;98105.22;;;16.27;57.63
15932;BME280;8065;49.520;11.284;2023-05-17T11:04:22;98094.91;;;16.41;57.03
15932;BME280;8065;49.520;11.284;2023-05-17T11:06:50;98105.22;;;16.27;57.60
15932;BME280;8065;49.520;11.284;2023-05-17T11:09:20;98098.75;;;16.28;57.58
15932;BME280;8065;49.520;11.284;2023-05-17T11:12:04;98098.97;;;16.23;56.05
15932;BME280;8065;49.520;11.284;2023-05-17T11:14:42;98098.41;;;16.29;56.62
15932;BME280;8065;49.520;11.284;2023-05-17T11:17:12;98099.38;;;16.37;56.15
15932;BME280;8065;49.520;11.284;2023-05-17T11:19:54;98097.59;;;16.41;55.92
15932;BME280;8065;49.520;11.284;2023-05-17T11:22:21;98092.41;;;16.48;56.10
15932;BME280;8065;49.520;11.284;2023-05-17T11:24:50;98086.09;;;16.56;56.02
15932;BME280;8065;49.520;11.284;2023-05-17T11:27:18;98088.69;;;16.65;55.66
15932;BME280;8065;49.520;11.284;2023-05-17T11:29:46;98087.22;;;16.67;55.72
15932;BME280;8065;49.520;11.284;2023-05-17T11:32:13;98084.09;;;16.53;56.61
15932;BME280;8065;49.520;11.284;2023-05-17T11:34:39;98091.56;;;16.60;56.36
15932;BME280;8065;49.520;11.284;2023-05-17T11:37:10;98090.78;;;16.59;57.04
15932;BME280;8065;49.520;11.284;2023-05-17T11:40:00;98085.66;;;16.66;55.78
15932;BME280;8065;49.520;11.284;2023-05-17T11:42:27;98086.09;;;16.68;55.61
15932;BME280;8065;49.520;11.284;2023-05-17T11:44:55;98087.31;;;16.43;56.44
15932;BME280;8065;49.520;11.284;2023-05-17T11:47:22;98086.22;;;16.32;56.97
15932;BME280;8065;49.520;11.284;2023-05-17T11:49:49;98080.53;;;16.49;56.85
15932;BME280;8065;49.520;11.284;2023-05-17T11:52:18;98077.16;;;16.64;55.18
15932;BME280;8065;49.520;11.284;2023-05-17T11:54:45;98074.25;;;16.85;55.40
15932;BME280;8065;49.520;11.284;2023-05-17T11:57:13;98072.53;;;16.93;54.24
15932;BME280;8065;49.520;11.284;2023-05-17T11:59:42;98074.03;;;17.06;54.11
15932;BME280;8065;49.520;11.284;2023-05-17T12:02:09;98070.84;;;17.16;54.14
15932;BME280;8065;49.520;11.284;2023-05-17T12:04:36;98076.47;;;16.67;55.99
15932;BME280;8065;49.520;11.284;2023-05-17T12:07:03;98083.31;;;16.65;55.96
15932;BME280;8065;49.520;11.284;2023-05-17T12:09:32;98079.09;;;16.80;56.26
15932;BME280;8065;49.520;11.284;2023-05-17T12:12:01;98085.84;;;16.74;57.79
15932;BME280;8065;49.520;11.284;2023-05-17T12:14:29;98076.22;;;16.73;57.45
15932;BME280;8065;49.520;11.284;2023-05-17T12:16:58;98079.19;;;16.27;58.37
15932;BME280;8065;49.520;11.284;2023-05-17T12:19:25;98084.84;;;16.38;57.15
15932;BME280;8065;49.520;11.284;2023-05-17T12:22:04;98091.19;;;16.46;56.77
15932;BME280;8065;49.520;11.284;2023-05-17T12:24:36;98082.53;;;16.52;57.23
15932;BME280;8065;49.520;11.284;2023-05-17T12:27:03;98082.31;;;16.57;57.87
15932;BME280;8065;49.520;11.284;2023-05-17T12:29:30;98075.97;;;16.78;57.39
15932;BME280;8065;49.520;11.284;2023-05-17T12:31:57;98079.03;;;16.92;57.23
15932;BME280;8065;49.520;11.284;2023-05-17T12:34:25;98068.66;;;16.90;56.42
15932;BME280;8065;49.520;11.284;2023-05-17T12:36:52;98077.47;;;16.91;56.16
15932;BME280;8065;49.520;11.284;2023-05-17T12:39:19;98080.06;;;16.87;56.39
15932;BME280;8065;49.520;11.284;2023-05-17T12:41:50;98078.84;;;16.85;56.29
15932;BME280;8065;49.520;11.284;2023-05-17T12:44:18;98068.47;;;16.99;55.67
15932;BME280;8065;49.520;11.284;2023-05-17T12:46:46;98071.34;;;17.06;56.08
15932;BME280;8065;49.520;11.284;2023-05-17T12:49:25;98077.34;;;17.15;55.82
15932;BME280;8065;49.520;11.284;2023-05-17T12:51:52;98077.34;;;17.15;55.55
15932;BME280;8065;49.520;11.284;2023-05-17T12:54:26;98076.03;;;17.09;55.43
15932;BME280;8065;49.520;11.284;2023-05-17T12:56:53;98078.72;;;17.09;55.36
15932;BME280;8065;49.520;11.284;2023-05-17T12:59:20;98087.72;;;17.17;55.33
15932;BME280;8065;49.520;11.284;2023-05-17T13:01:50;98087.66;;;17.13;55.77
15932;BME280;8065;49.520;11.284;2023-05-17T13:04:18;98092.91;;;16.94;55.99
15932;BME280;8065;49.520;11.284;2023-05-17T13:06:47;98093.44;;;16.99;55.65